createdAt,value
2022-12-04T00:00:52.973Z,13.23
2022-12-04T00:03:19.705Z,12.57
2022-12-04T00:05:46.344Z,14.00
2022-12-04T00:08:13.067Z,12.60
2022-12-04T00:10:43.855Z,13.07
2022-12-04T00:13:10.642Z,13.30
2022-12-04T00:15:41.182Z,13.83
2022-12-04T00:18:07.801Z,12.57
2022-12-04T00:20:35.135Z,13.93
2022-12-04T00:23:01.818Z,14.77
2022-12-04T00:25:30.370Z,12.93
2022-12-04T00:27:57.188Z,12.93
2022-12-04T00:30:23.785Z,11.77
2022-12-04T00:32:50.558Z,13.00
2022-12-04T00:35:17.228Z,11.63
2022-12-04T00:37:43.888Z,13.47
2022-12-04T00:40:10.785Z,14.33
2022-12-04T00:42:37.411Z,14.40
2022-12-04T00:45:04.311Z,14.53
2022-12-04T00:47:30.907Z,15.00
2022-12-04T00:49:57.790Z,14.83
2022-12-04T00:52:24.602Z,13.27
2022-12-04T00:54:51.251Z,14.30
2022-12-04T00:57:17.939Z,14.47
2022-12-04T00:59:44.657Z,14.73
2022-12-04T01:02:11.234Z,13.13
2022-12-04T01:04:38.068Z,13.50
2022-12-04T01:07:05.461Z,13.90
2022-12-04T01:09:32.874Z,14.20
2022-12-04T01:11:59.646Z,14.60
2022-12-04T01:14:26.372Z,14.93
2022-12-04T01:16:53.093Z,15.87
2022-12-04T01:19:19.742Z,16.13
2022-12-04T01:21:46.478Z,13.33
2022-12-04T01:24:13.111Z,14.03
2022-12-04T01:26:39.798Z,15.13
2022-12-04T01:29:06.499Z,13.83
2022-12-04T01:31:33.336Z,13.90
2022-12-04T01:34:00.046Z,14.90
2022-12-04T01:36:27.652Z,15.67
2022-12-04T01:38:54.545Z,14.67
2022-12-04T01:41:23.004Z,13.83
2022-12-04T01:44:09.491Z,14.37
2022-12-04T01:46:36.121Z,15.27
2022-12-04T01:49:03.056Z,15.63
2022-12-04T01:51:49.916Z,15.27
2022-12-04T01:54:18.961Z,14.60
2022-12-04T01:56:49.265Z,14.27
2022-12-04T01:59:17.394Z,13.53
2022-12-04T02:01:47.399Z,13.63
2022-12-04T02:04:14.196Z,15.13
2022-12-04T02:06:40.775Z,14.97
2022-12-04T02:09:07.323Z,15.00
2022-12-04T02:11:46.687Z,14.93
2022-12-04T02:14:13.231Z,15.20
2022-12-04T02:16:39.849Z,14.30
2022-12-04T02:19:09.586Z,16.20
2022-12-04T02:21:40.569Z,15.23
2022-12-04T02:24:25.578Z,15.40
2022-12-04T02:26:56.021Z,15.27
2022-12-04T02:29:26.486Z,14.33
2022-12-04T02:32:11.390Z,15.53
2022-12-04T02:34:43.923Z,15.53
2022-12-04T02:37:16.978Z,15.37
2022-12-04T02:40:04.073Z,14.00
2022-12-04T02:42:35.568Z,14.87
2022-12-04T02:45:08.347Z,15.67
2022-12-04T02:47:36.393Z,14.67
2022-12-04T02:50:05.277Z,14.43
2022-12-04T02:52:33.461Z,15.40
2022-12-04T02:55:08.184Z,14.87
2022-12-04T02:57:37.937Z,14.00
2022-12-04T03:00:07.967Z,13.97
2022-12-04T03:02:48.446Z,14.77
2022-12-04T03:05:16.962Z,14.60
2022-12-04T03:07:54.262Z,13.47
2022-12-04T03:10:26.623Z,13.70
2022-12-04T03:12:59.295Z,14.43
2022-12-04T03:15:28.098Z,12.53
2022-12-04T03:18:01.372Z,13.93
2022-12-04T03:20:29.708Z,14.23
2022-12-04T03:22:59.573Z,12.63
2022-12-04T03:25:30.764Z,12.47
2022-12-04T03:27:57.331Z,13.00
2022-12-04T03:30:24.204Z,12.33
2022-12-04T03:32:50.889Z,12.20
2022-12-04T03:35:17.423Z,13.07
2022-12-04T03:37:54.081Z,11.77
2022-12-04T03:40:25.823Z,13.10
2022-12-04T03:43:08.574Z,10.20
2022-12-04T03:45:35.218Z,12.40
2022-12-04T03:48:06.013Z,10.63
2022-12-04T03:50:36.040Z,11.37
2022-12-04T03:53:02.656Z,11.33
2022-12-04T03:55:51.828Z,10.70
2022-12-04T03:58:22.151Z,10.47
2022-12-04T04:00:51.373Z,8.40
2022-12-04T04:03:20.805Z,8.53
2022-12-04T04:05:50.713Z,10.60
2022-12-04T04:08:30.948Z,10.03
2022-12-04T04:11:07.782Z,9.90
2022-12-04T04:14:13.399Z,9.93
2022-12-04T04:17:02.000Z,8.93
2022-12-04T04:19:48.368Z,9.07
2022-12-04T04:22:35.717Z,9.27
2022-12-04T04:25:05.350Z,9.17
2022-12-04T04:27:32.208Z,11.03
2022-12-04T04:29:59.176Z,9.93
2022-12-04T04:32:33.648Z,11.40
2022-12-04T04:35:06.338Z,8.93
2022-12-04T04:37:45.087Z,10.93
2022-12-04T04:40:11.812Z,10.97
2022-12-04T04:42:43.616Z,11.43
2022-12-04T04:45:10.328Z,11.60
2022-12-04T04:47:46.176Z,10.70
2022-12-04T04:50:13.940Z,10.67
2022-12-04T04:52:42.525Z,10.03
2022-12-04T04:55:09.559Z,11.93
2022-12-04T04:57:36.774Z,9.47
2022-12-04T05:00:08.817Z,11.97
2022-12-04T05:02:35.579Z,11.83
2022-12-04T05:05:02.263Z,10.40
2022-12-04T05:07:29.021Z,10.70
2022-12-04T05:09:56.051Z,12.27
2022-12-04T05:12:22.796Z,10.63
2022-12-04T05:14:49.462Z,12.30
2022-12-04T05:17:16.125Z,12.30
2022-12-04T05:19:55.399Z,11.90
2022-12-04T05:22:32.798Z,11.77
2022-12-04T05:24:59.847Z,11.33
2022-12-04T05:27:27.429Z,10.57
2022-12-04T05:29:55.036Z,9.30
2022-12-04T05:32:22.852Z,11.40
2022-12-04T05:34:49.789Z,10.83
2022-12-04T05:37:16.749Z,11.00
2022-12-04T05:39:43.676Z,10.53
2022-12-04T05:42:10.783Z,10.90
2022-12-04T05:44:37.515Z,11.57
2022-12-04T05:47:04.186Z,9.67
2022-12-04T05:49:31.465Z,10.70
2022-12-04T05:51:58.294Z,9.53
2022-12-04T05:54:25.128Z,11.77
2022-12-04T05:56:51.821Z,12.00
2022-12-04T05:59:18.839Z,11.30
2022-12-04T06:01:46.110Z,9.73
2022-12-04T06:04:12.810Z,11.90
2022-12-04T06:06:39.410Z,11.77
2022-12-04T06:09:07.075Z,9.63
2022-12-04T06:11:35.703Z,12.57
2022-12-04T06:14:03.400Z,10.37
2022-12-04T06:16:31.508Z,11.20
2022-12-04T06:18:59.413Z,9.40
2022-12-04T06:21:27.784Z,9.30
2022-12-04T06:23:54.762Z,10.30
2022-12-04T06:26:21.982Z,8.77
2022-12-04T06:28:49.038Z,9.93
2022-12-04T06:31:16.621Z,8.33
2022-12-04T06:33:43.275Z,9.93
2022-12-04T06:36:14.362Z,9.43
2022-12-04T06:38:41.567Z,9.77
2022-12-04T06:41:09.109Z,10.47
2022-12-04T06:43:36.103Z,9.20
2022-12-04T06:46:04.200Z,8.93
2022-12-04T06:48:30.932Z,8.13
2022-12-04T06:51:00.320Z,9.83
2022-12-04T06:53:27.943Z,7.83
2022-12-04T06:55:55.095Z,8.00
2022-12-04T06:58:21.730Z,10.50
2022-12-04T07:00:48.553Z,9.90
2022-12-04T07:03:15.128Z,9.70
2022-12-04T07:05:41.719Z,8.60
2022-12-04T07:08:08.601Z,9.20
2022-12-04T07:10:35.862Z,8.57
2022-12-04T07:13:02.951Z,9.00
2022-12-04T07:15:29.682Z,7.87
2022-12-04T07:17:56.272Z,8.27
2022-12-04T07:20:22.890Z,8.07
2022-12-04T07:22:49.755Z,8.20
2022-12-04T07:25:16.448Z,9.27
2022-12-04T07:27:43.657Z,8.83
2022-12-04T07:30:15.512Z,7.53
2022-12-04T07:32:42.622Z,7.83
2022-12-04T07:35:09.291Z,8.13
2022-12-04T07:37:36.369Z,8.27
2022-12-04T07:40:03.842Z,6.13
2022-12-04T07:42:30.514Z,7.83
2022-12-04T07:44:57.145Z,7.97
2022-12-04T07:47:23.778Z,9.30
2022-12-04T07:49:50.459Z,9.67
2022-12-04T07:52:17.070Z,8.17
2022-12-04T07:54:43.778Z,9.03
2022-12-04T07:57:10.504Z,7.97
2022-12-04T07:59:37.122Z,9.40
2022-12-04T08:02:05.503Z,7.97
2022-12-04T08:04:32.376Z,8.03
2022-12-04T08:06:59.094Z,6.57
2022-12-04T08:09:25.655Z,7.90
2022-12-04T08:11:52.284Z,8.17
2022-12-04T08:14:18.828Z,7.60
2022-12-04T08:16:51.025Z,8.43
2022-12-04T08:19:19.276Z,8.57
2022-12-04T08:21:46.084Z,7.70
2022-12-04T08:24:12.681Z,7.97
2022-12-04T08:26:39.371Z,8.83
2022-12-04T08:29:06.809Z,6.93
2022-12-04T08:31:34.507Z,6.90
2022-12-04T08:34:03.150Z,8.63
2022-12-04T08:36:29.904Z,8.20
2022-12-04T08:38:56.604Z,8.43
2022-12-04T08:41:24.448Z,9.10
2022-12-04T08:43:51.569Z,9.40
2022-12-04T08:46:18.708Z,8.83
2022-12-04T08:48:45.939Z,7.23
2022-12-04T08:51:16.894Z,8.67
2022-12-04T08:53:43.885Z,8.87
2022-12-04T08:56:10.536Z,7.43
2022-12-04T08:58:37.179Z,8.43
2022-12-04T09:01:04.866Z,8.73
2022-12-04T09:03:31.583Z,8.40
2022-12-04T09:05:59.587Z,7.77
2022-12-04T09:08:26.260Z,6.90
2022-12-04T09:10:52.862Z,9.70
2022-12-04T09:13:19.480Z,10.13
2022-12-04T09:15:46.362Z,9.57
2022-12-04T09:18:13.083Z,6.97
2022-12-04T09:20:39.639Z,8.10
2022-12-04T09:23:06.327Z,8.23
2022-12-04T09:25:36.880Z,8.67
2022-12-04T09:28:03.815Z,8.27
2022-12-04T09:30:30.448Z,8.87
2022-12-04T09:32:57.152Z,8.70
2022-12-04T09:35:23.840Z,9.90
2022-12-04T09:37:50.470Z,9.33
2022-12-04T09:40:33.751Z,8.70
2022-12-04T09:43:26.530Z,9.67
2022-12-04T09:45:55.703Z,8.57
2022-12-04T09:48:27.167Z,9.13
2022-12-04T09:50:54.535Z,9.80
2022-12-04T09:53:25.584Z,8.67
2022-12-04T09:55:58.944Z,8.77
2022-12-04T09:58:28.547Z,9.77
2022-12-04T10:00:56.411Z,8.77
2022-12-04T10:03:25.618Z,9.13
2022-12-04T10:06:05.574Z,9.77
2022-12-04T10:08:35.645Z,10.07
2022-12-04T10:11:02.190Z,9.60
2022-12-04T10:13:31.923Z,11.13
2022-12-04T10:16:11.669Z,10.77
2022-12-04T10:18:48.167Z,11.90
2022-12-04T10:21:33.305Z,11.17
2022-12-04T10:24:05.939Z,11.13
2022-12-04T10:26:46.963Z,11.87
2022-12-04T10:29:24.246Z,10.93
2022-12-04T10:31:52.027Z,10.60
2022-12-04T10:34:25.345Z,12.63
2022-12-04T10:36:53.689Z,10.97
2022-12-04T10:39:25.796Z,10.67
2022-12-04T10:41:58.567Z,10.13
2022-12-04T10:44:25.494Z,11.20
2022-12-04T10:46:55.097Z,9.77
2022-12-04T10:49:21.826Z,10.73
2022-12-04T10:51:48.586Z,11.37
2022-12-04T10:54:34.111Z,10.03
2022-12-04T10:57:02.006Z,10.47
2022-12-04T10:59:29.329Z,11.03
2022-12-04T11:02:06.232Z,11.97
2022-12-04T11:04:34.280Z,11.97
2022-12-04T11:07:05.513Z,12.00
2022-12-04T11:09:32.659Z,10.73
2022-12-04T11:12:28.801Z,11.30
2022-12-04T11:15:15.466Z,9.93
2022-12-04T11:17:42.197Z,11.17
2022-12-04T11:20:15.431Z,12.67
2022-12-04T11:22:50.110Z,11.33
2022-12-04T11:25:20.049Z,11.00
2022-12-04T11:27:54.775Z,11.17
2022-12-04T11:30:35.489Z,12.03
2022-12-04T11:33:12.434Z,12.87
2022-12-04T11:35:42.853Z,11.57
2022-12-04T11:38:24.232Z,13.33
2022-12-04T11:40:56.211Z,12.97
2022-12-04T11:43:37.988Z,12.17
2022-12-04T11:46:09.447Z,10.67
2022-12-04T11:48:43.934Z,9.77
2022-12-04T11:51:29.858Z,11.30
2022-12-04T11:53:57.033Z,10.33
2022-12-04T11:56:40.608Z,10.60
2022-12-04T12:02:30.725Z,11.67
2022-12-04T12:05:25.691Z,12.00
2022-12-04T12:08:10.410Z,13.33
2022-12-04T12:11:24.909Z,11.60
2022-12-04T12:14:22.308Z,11.50
2022-12-04T12:19:51.595Z,11.13
2022-12-04T12:22:29.209Z,12.13
2022-12-04T12:25:08.322Z,10.33
2022-12-04T12:27:50.738Z,11.87
2022-12-04T12:30:19.226Z,11.23
2022-12-04T12:33:04.837Z,11.13
2022-12-04T12:35:58.100Z,9.90
2022-12-04T12:38:48.914Z,11.33
2022-12-04T12:41:17.650Z,10.77
2022-12-04T12:43:48.361Z,10.90
2022-12-04T12:46:17.385Z,11.20
2022-12-04T12:49:02.993Z,11.27
2022-12-04T12:51:34.501Z,11.20
2022-12-04T12:54:15.222Z,11.43
2022-12-04T12:56:49.509Z,12.23
2022-12-04T12:59:19.334Z,10.03
2022-12-04T13:01:48.480Z,10.03
2022-12-04T13:04:22.089Z,11.37
2022-12-04T13:06:53.073Z,11.07
2022-12-04T13:09:31.834Z,12.40
2022-12-04T13:12:08.983Z,10.57
2022-12-04T13:14:35.687Z,11.63
2022-12-04T13:17:04.226Z,12.67
2022-12-04T13:19:43.515Z,11.80
2022-12-04T13:22:18.946Z,12.57
2022-12-04T13:24:45.558Z,11.23
2022-12-04T13:27:15.258Z,12.80
2022-12-04T13:30:00.097Z,11.33
2022-12-04T13:32:45.299Z,10.57
2022-12-04T13:35:14.743Z,10.40
2022-12-04T13:37:56.328Z,12.20
2022-12-04T13:40:26.563Z,10.50
2022-12-04T13:42:53.459Z,11.10
2022-12-04T13:45:26.387Z,8.73
2022-12-04T13:47:57.307Z,11.07
2022-12-04T13:50:32.508Z,11.10
2022-12-04T13:53:00.647Z,10.67
2022-12-04T13:55:35.704Z,10.57
2022-12-04T13:58:11.451Z,10.43
2022-12-04T14:00:42.693Z,11.77
2022-12-04T14:03:24.686Z,10.37
2022-12-04T14:05:51.987Z,11.60
2022-12-04T14:08:18.663Z,9.10
2022-12-04T14:11:06.500Z,12.10
2022-12-04T14:13:44.454Z,12.33
2022-12-04T14:16:23.018Z,14.03
2022-12-04T14:18:52.510Z,13.97
2022-12-04T14:21:19.156Z,11.67
2022-12-04T14:23:45.723Z,12.60
2022-12-04T14:26:23.217Z,13.40
2022-12-04T14:28:51.150Z,14.10
2022-12-04T14:31:17.741Z,13.10
2022-12-04T14:33:47.275Z,14.70
2022-12-04T14:36:32.697Z,14.27
2022-12-04T14:39:04.474Z,14.20
2022-12-04T14:41:32.251Z,13.87
2022-12-04T14:43:59.229Z,14.47
2022-12-04T14:46:42.317Z,14.33
2022-12-04T14:49:23.831Z,13.93
2022-12-04T14:51:56.626Z,14.50
2022-12-04T14:54:39.879Z,13.47
2022-12-04T14:57:27.830Z,12.73
2022-12-04T14:59:55.050Z,13.27
2022-12-04T15:02:38.695Z,14.67
2022-12-04T15:05:09.311Z,16.03
2022-12-04T15:07:36.029Z,14.93
2022-12-04T15:10:32.569Z,15.07
2022-12-04T15:12:59.152Z,11.33
2022-12-04T15:15:27.626Z,13.17
2022-12-04T15:17:57.407Z,13.73
2022-12-04T15:20:24.509Z,12.67
2022-12-04T15:22:51.154Z,13.77
2022-12-04T15:25:19.821Z,15.97
2022-12-04T15:27:47.884Z,15.33
2022-12-04T15:30:19.468Z,14.53
2022-12-04T15:32:48.567Z,16.73
2022-12-04T15:35:26.959Z,16.07
2022-12-04T15:37:54.797Z,15.90
2022-12-04T15:40:27.098Z,15.20
2022-12-04T15:42:54.626Z,14.57
2022-12-04T15:45:23.768Z,14.30
2022-12-04T15:47:51.910Z,16.30
2022-12-04T15:50:18.580Z,15.07
2022-12-04T15:52:58.529Z,14.33
2022-12-04T15:55:26.122Z,15.80
2022-12-04T15:57:54.258Z,15.40
2022-12-04T16:00:24.006Z,15.30
2022-12-04T16:02:50.741Z,19.37
2022-12-04T16:05:20.522Z,22.20
2022-12-04T16:07:51.627Z,14.47
2022-12-04T16:10:25.719Z,13.60
2022-12-04T16:12:56.713Z,17.17
2022-12-04T16:15:24.350Z,13.37
2022-12-04T16:17:51.193Z,13.27
2022-12-04T16:20:18.310Z,13.63
2022-12-04T16:22:45.292Z,12.80
2022-12-04T16:25:12.741Z,13.53
2022-12-04T16:27:39.319Z,13.10
2022-12-04T16:30:06.307Z,13.90
2022-12-04T16:32:33.722Z,14.53
2022-12-04T16:35:00.432Z,13.97
2022-12-04T16:37:28.498Z,13.93
2022-12-04T16:39:55.328Z,13.13
2022-12-04T16:42:23.296Z,13.70
2022-12-04T16:44:50.133Z,13.03
2022-12-04T16:47:17.481Z,12.80
2022-12-04T16:49:44.840Z,14.13
2022-12-04T16:52:12.316Z,13.37
2022-12-04T16:54:39.760Z,14.20
2022-12-04T16:57:09.676Z,13.53
2022-12-04T16:59:36.692Z,12.47
2022-12-04T17:02:04.567Z,12.87
2022-12-04T17:04:31.412Z,12.53
2022-12-04T17:06:58.077Z,13.63
2022-12-04T17:09:24.773Z,13.20
2022-12-04T17:11:51.509Z,12.83
2022-12-04T17:14:18.119Z,13.43
2022-12-04T17:16:47.169Z,12.27
2022-12-04T17:19:14.268Z,12.67
2022-12-04T17:21:42.015Z,12.20
2022-12-04T17:24:08.932Z,12.23
2022-12-04T17:26:35.510Z,13.10
2022-12-04T17:29:02.141Z,12.93
2022-12-04T17:31:28.764Z,13.60
2022-12-04T17:33:55.954Z,12.17
2022-12-04T17:36:25.142Z,13.30
2022-12-04T17:38:58.650Z,13.73
2022-12-04T17:41:26.288Z,13.20
2022-12-04T17:43:52.901Z,13.23
2022-12-04T17:46:21.876Z,12.00
2022-12-04T17:48:49.050Z,11.80
2022-12-04T17:51:17.960Z,12.67
2022-12-04T17:53:44.746Z,14.93
2022-12-04T17:56:17.420Z,16.23
2022-12-04T17:58:44.571Z,15.00
2022-12-04T18:01:15.332Z,12.60
2022-12-04T18:03:43.476Z,16.77
2022-12-04T18:06:23.559Z,16.83
2022-12-04T18:08:50.783Z,13.57
2022-12-04T18:11:20.667Z,18.00
2022-12-04T18:13:48.189Z,17.93
2022-12-04T18:16:14.908Z,22.70
2022-12-04T18:18:41.606Z,15.67
2022-12-04T18:21:12.018Z,15.77
2022-12-04T18:23:44.485Z,14.80
2022-12-04T18:26:12.449Z,15.93
2022-12-04T18:28:39.098Z,15.77
2022-12-04T18:31:06.665Z,13.20
2022-12-04T18:33:34.151Z,19.00
2022-12-04T18:36:01.326Z,13.63
2022-12-04T18:38:30.165Z,13.70
2022-12-04T18:41:01.426Z,14.53
2022-12-04T18:43:28.080Z,14.17
2022-12-04T18:46:04.080Z,14.73
2022-12-04T18:48:33.797Z,17.53
2022-12-04T18:51:00.696Z,18.17
2022-12-04T18:53:27.426Z,15.63
2022-12-04T18:55:55.335Z,17.40
2022-12-04T18:58:23.059Z,14.90
2022-12-04T19:00:51.887Z,14.00
2022-12-04T19:03:18.565Z,15.60
2022-12-04T19:05:48.995Z,15.30
2022-12-04T19:08:15.738Z,16.30
2022-12-04T19:10:42.501Z,14.20
2022-12-04T19:13:09.492Z,16.03
2022-12-04T19:15:41.233Z,18.70
2022-12-04T19:18:08.012Z,19.07
2022-12-04T19:20:34.660Z,16.73
2022-12-04T19:23:02.349Z,16.87
2022-12-04T19:25:29.079Z,15.37
2022-12-04T19:27:56.195Z,17.20
2022-12-04T19:30:22.873Z,16.23
2022-12-04T19:32:49.647Z,14.40
2022-12-04T19:35:17.471Z,17.57
2022-12-04T19:37:49.582Z,17.83
2022-12-04T19:40:19.483Z,16.70
2022-12-04T19:42:59.508Z,15.90
2022-12-04T19:45:36.568Z,15.27
2022-12-04T19:48:03.412Z,18.23
2022-12-04T19:50:30.220Z,16.20
2022-12-04T19:52:59.757Z,16.60
2022-12-04T19:55:28.724Z,17.37
2022-12-04T19:57:55.437Z,16.47
2022-12-04T20:00:23.552Z,18.00
2022-12-04T20:02:50.305Z,19.43
2022-12-04T20:05:17.041Z,17.53
2022-12-04T20:07:43.757Z,17.50
2022-12-04T20:10:10.892Z,18.23
2022-12-04T20:12:37.813Z,18.00
2022-12-04T20:15:04.791Z,18.30
2022-12-04T20:17:31.626Z,19.63
2022-12-04T20:19:58.659Z,18.83
2022-12-04T20:22:25.613Z,19.17
2022-12-04T20:24:53.306Z,17.63
2022-12-04T20:27:19.962Z,18.60
2022-12-04T20:29:49.730Z,19.07
2022-12-04T20:32:16.439Z,18.83
2022-12-04T20:34:43.976Z,18.47
2022-12-04T20:37:10.897Z,18.23
2022-12-04T20:39:37.939Z,16.47
2022-12-04T20:42:04.829Z,16.50
2022-12-04T20:44:31.920Z,17.80
2022-12-04T20:46:58.612Z,17.30
2022-12-04T20:49:25.352Z,17.03
2022-12-04T20:51:52.421Z,18.17
2022-12-04T20:54:20.316Z,17.07
2022-12-04T20:56:48.946Z,17.70
2022-12-04T20:59:16.748Z,16.93
2022-12-04T21:01:43.480Z,17.83
2022-12-04T21:04:10.942Z,18.37
2022-12-04T21:06:38.904Z,18.63
2022-12-04T21:09:06.894Z,20.10
2022-12-04T21:11:38.023Z,19.50
2022-12-04T21:14:25.532Z,18.33
2022-12-04T21:16:52.404Z,19.77
2022-12-04T21:19:20.601Z,19.17
2022-12-04T21:21:47.495Z,19.80
2022-12-04T21:24:15.287Z,18.90
2022-12-04T21:26:41.937Z,18.50
2022-12-04T21:29:08.844Z,19.47
2022-12-04T21:31:36.473Z,16.80
2022-12-04T21:34:05.241Z,18.07
2022-12-04T21:36:32.241Z,18.30
2022-12-04T21:38:58.898Z,18.30
2022-12-04T21:41:44.426Z,17.80
2022-12-04T21:44:17.182Z,18.00
2022-12-04T21:46:44.325Z,16.53
2022-12-04T21:49:11.424Z,16.13
2022-12-04T21:54:27.143Z,17.03
2022-12-04T21:56:53.953Z,17.03
2022-12-04T21:59:20.780Z,18.43
2022-12-04T22:01:47.570Z,17.17
2022-12-04T22:04:14.390Z,15.00
2022-12-04T22:06:40.983Z,17.20
2022-12-04T22:09:08.506Z,16.40
2022-12-04T22:11:35.245Z,16.87
2022-12-04T22:14:02.028Z,18.03
2022-12-04T22:16:30.966Z,16.77
2022-12-04T22:19:00.092Z,17.73
2022-12-04T22:21:27.664Z,17.77
2022-12-04T22:23:55.185Z,18.10
2022-12-04T22:26:22.032Z,18.07
2022-12-04T22:28:49.708Z,17.13
2022-12-04T22:31:17.632Z,16.20
2022-12-04T22:33:48.301Z,17.83
2022-12-04T22:36:16.235Z,17.00
2022-12-04T22:39:07.702Z,17.00
2022-12-04T22:41:29.781Z,16.67
2022-12-04T22:43:56.429Z,16.90
2022-12-04T22:46:23.211Z,16.80
2022-12-04T22:48:49.998Z,17.03
2022-12-04T22:51:17.892Z,16.63
2022-12-04T22:53:48.624Z,18.30
2022-12-04T22:56:16.975Z,18.03
2022-12-04T22:58:46.640Z,18.40
2022-12-04T23:01:17.944Z,17.93
2022-12-04T23:03:45.228Z,17.40
2022-12-04T23:06:12.281Z,17.67
2022-12-04T23:08:39.364Z,17.93
2022-12-04T23:11:07.193Z,18.63
2022-12-04T23:13:33.841Z,17.87
2022-12-04T23:16:04.900Z,16.10
2022-12-04T23:18:34.961Z,18.40
2022-12-04T23:21:02.537Z,17.93
2022-12-04T23:23:29.196Z,18.07
2022-12-04T23:25:55.883Z,17.97
2022-12-04T23:28:22.550Z,18.23
2022-12-04T23:30:49.237Z,18.43
2022-12-04T23:33:15.868Z,18.07
2022-12-04T23:35:42.499Z,18.33
2022-12-04T23:38:09.209Z,19.27
2022-12-04T23:40:35.921Z,19.50
2022-12-04T23:43:02.515Z,17.80
2022-12-04T23:45:29.223Z,18.97
2022-12-04T23:47:55.994Z,19.03
2022-12-04T23:50:22.665Z,19.50
2022-12-04T23:52:49.338Z,18.53
2022-12-04T23:55:16.077Z,18.07
2022-12-04T23:57:42.870Z,21.17
